createdAt,value
2024-05-09T00:06:16.778Z,12.90
2024-05-09T00:08:44.662Z,15.20
2024-05-09T00:11:14.229Z,14.80
2024-05-09T00:13:44.622Z,15.20
2024-05-09T00:16:16.078Z,14.10
2024-05-09T00:18:44.458Z,14.90
2024-05-09T00:21:13.376Z,13.60
2024-05-09T00:23:41.318Z,12.40
2024-05-09T00:26:09.401Z,15.90
2024-05-09T00:28:39.423Z,13.00
2024-05-09T00:31:20.351Z,12.50
2024-05-09T00:33:57.485Z,13.30
2024-05-09T00:36:34.613Z,13.60
2024-05-09T00:39:15.579Z,14.80
2024-05-09T00:42:06.006Z,18.00
2024-05-09T00:44:37.368Z,11.70
2024-05-09T00:47:07.867Z,13.20
2024-05-09T00:49:51.135Z,13.80
2024-05-09T00:52:19.105Z,12.50
2024-05-09T00:54:47.587Z,13.40
2024-05-09T00:57:26.839Z,11.80
2024-05-09T00:59:55.664Z,15.10
2024-05-09T01:02:40.928Z,11.20
2024-05-09T01:05:11.703Z,14.30
2024-05-09T01:07:39.685Z,16.00
2024-05-09T01:10:13.947Z,14.20
2024-05-09T01:12:45.119Z,14.00
2024-05-09T01:15:15.460Z,12.00
2024-05-09T01:17:43.507Z,13.90
2024-05-09T01:20:19.842Z,15.10
2024-05-09T01:22:52.725Z,14.80
2024-05-09T01:25:20.742Z,14.80
2024-05-09T01:27:48.730Z,13.10
2024-05-09T01:30:21.027Z,14.30
2024-05-09T01:32:53.271Z,11.30
2024-05-09T01:35:24.735Z,11.00
2024-05-09T01:37:53.018Z,13.40
2024-05-09T01:40:33.346Z,14.80
2024-05-09T01:43:05.409Z,21.40
2024-05-09T01:45:38.257Z,23.20
2024-05-09T01:48:09.281Z,26.10
2024-05-09T01:50:41.572Z,21.30
2024-05-09T01:53:44.063Z,19.80
2024-05-09T01:56:32.168Z,17.50
2024-05-09T01:59:05.573Z,15.20
2024-05-09T02:01:56.462Z,13.60
2024-05-09T02:04:35.427Z,15.20
2024-05-09T02:07:05.548Z,14.00
2024-05-09T02:09:38.871Z,14.90
2024-05-09T02:12:07.363Z,14.10
2024-05-09T02:14:50.052Z,12.70
2024-05-09T02:17:31.915Z,13.80
2024-05-09T02:19:59.894Z,14.60
2024-05-09T02:22:28.824Z,11.10
2024-05-09T02:24:59.880Z,12.10
2024-05-09T02:27:35.169Z,9.30
2024-05-09T02:30:04.706Z,15.20
2024-05-09T02:32:36.361Z,11.20
2024-05-09T02:35:22.022Z,10.50
2024-05-09T02:37:50.116Z,11.60
2024-05-09T02:40:33.194Z,11.20
2024-05-09T02:43:19.903Z,19.10
2024-05-09T02:45:51.489Z,11.80
2024-05-09T02:48:19.742Z,14.90
2024-05-09T02:50:47.783Z,12.00
2024-05-09T02:53:20.453Z,12.30
2024-05-09T02:56:28.516Z,11.50
2024-05-09T03:03:39.140Z,12.40
2024-05-09T03:06:19.216Z,7.90
2024-05-09T03:08:57.222Z,11.70
2024-05-09T03:11:27.929Z,11.70
2024-05-09T03:14:03.256Z,12.50
2024-05-09T03:16:44.202Z,10.10
2024-05-09T03:19:12.469Z,9.00
2024-05-09T03:21:45.753Z,14.50
2024-05-09T03:24:14.787Z,9.00
2024-05-09T03:26:47.134Z,13.70
2024-05-09T03:29:15.889Z,8.60
2024-05-09T03:31:47.302Z,9.10
2024-05-09T03:34:24.261Z,7.10
2024-05-09T03:37:00.614Z,10.90
2024-05-09T03:39:28.393Z,10.60
2024-05-09T03:42:19.197Z,10.70
2024-05-09T03:44:55.591Z,16.40
2024-05-09T03:47:23.391Z,18.00
2024-05-09T03:49:53.784Z,11.50
2024-05-09T03:52:26.571Z,10.70
2024-05-09T03:54:54.417Z,10.60
2024-05-09T03:57:22.476Z,10.20
2024-05-09T03:59:59.379Z,10.70
2024-05-09T04:02:43.038Z,16.80
2024-05-09T04:05:26.839Z,21.90
2024-05-09T04:07:57.340Z,10.00
2024-05-09T04:10:33.417Z,11.90
2024-05-09T04:13:03.191Z,12.60
2024-05-09T04:15:31.479Z,15.30
2024-05-09T04:17:59.868Z,14.20
2024-05-09T04:20:37.016Z,9.60
2024-05-09T04:23:09.380Z,10.10
2024-05-09T04:25:37.672Z,13.60
2024-05-09T04:28:05.431Z,9.50
2024-05-09T04:30:38.639Z,14.00
2024-05-09T04:33:11.544Z,14.10
2024-05-09T04:35:44.891Z,13.90
2024-05-09T04:38:13.271Z,12.50
2024-05-09T04:40:41.076Z,10.00
2024-05-09T04:43:13.794Z,8.50
2024-05-09T04:45:41.518Z,8.30
2024-05-09T04:48:09.290Z,5.50
2024-05-09T04:50:39.055Z,8.80
2024-05-09T04:53:09.038Z,6.00
2024-05-09T04:55:37.862Z,25.60
2024-05-09T04:58:07.954Z,6.70
2024-05-09T05:00:37.667Z,9.40
2024-05-09T05:03:08.319Z,7.60
2024-05-09T05:05:50.402Z,8.60
2024-05-09T05:08:24.375Z,8.20
2024-05-09T05:10:52.259Z,5.70
2024-05-09T05:13:21.360Z,8.70
2024-05-09T05:15:51.061Z,10.60
2024-05-09T05:18:19.109Z,13.00
2024-05-09T05:20:47.009Z,7.10
2024-05-09T05:23:15.612Z,8.20
2024-05-09T05:25:43.847Z,7.50
2024-05-09T05:28:11.603Z,12.10
2024-05-09T05:30:40.695Z,15.60
2024-05-09T05:33:12.799Z,8.30
2024-05-09T05:35:40.915Z,4.80
2024-05-09T05:38:08.830Z,5.70
2024-05-09T05:40:38.329Z,7.30
2024-05-09T05:43:11.008Z,8.40
2024-05-09T05:45:39.105Z,3.90
2024-05-09T05:48:07.828Z,4.60
2024-05-09T05:50:37.901Z,7.10
2024-05-09T05:53:07.734Z,4.10
2024-05-09T05:55:36.763Z,4.20
2024-05-09T05:58:04.621Z,5.00
2024-05-09T06:03:02.606Z,11.50
2024-05-09T06:05:30.539Z,4.40
2024-05-09T06:07:58.092Z,2.50
2024-05-09T06:10:30.201Z,3.90
2024-05-09T06:13:04.898Z,2.10
2024-05-09T06:15:32.370Z,3.90
2024-05-09T06:18:00.233Z,3.60
2024-05-09T06:20:35.444Z,4.70
2024-05-09T06:23:05.892Z,5.30
2024-05-09T06:25:34.162Z,3.40
2024-05-09T06:28:01.758Z,4.00
2024-05-09T06:30:37.867Z,4.90
2024-05-09T06:33:10.252Z,5.90
2024-05-09T06:35:39.456Z,6.40
2024-05-09T06:38:10.222Z,7.10
2024-05-09T06:40:44.154Z,3.60
2024-05-09T06:43:13.018Z,4.70
2024-05-09T06:45:40.775Z,6.00
2024-05-09T06:48:09.252Z,4.50
2024-05-09T06:50:38.832Z,3.40
2024-05-09T06:53:08.180Z,12.80
2024-05-09T06:55:36.685Z,4.20
2024-05-09T06:58:05.354Z,7.80
2024-05-09T07:00:38.852Z,9.20
2024-05-09T07:03:09.269Z,8.10
2024-05-09T07:05:37.573Z,5.00
2024-05-09T07:08:05.928Z,6.40
2024-05-09T07:10:35.538Z,6.10
2024-05-09T07:13:14.174Z,5.40
2024-05-09T07:15:42.050Z,6.10
2024-05-09T07:18:13.818Z,4.50
2024-05-09T07:20:41.706Z,8.40
2024-05-09T07:23:10.181Z,4.70
2024-05-09T07:25:38.272Z,4.40
2024-05-09T07:28:09.633Z,12.90
2024-05-09T07:30:37.119Z,4.70
2024-05-09T07:33:05.001Z,5.40
2024-05-09T07:35:32.921Z,4.30
2024-05-09T07:38:00.754Z,4.90
2024-05-09T07:40:35.941Z,3.80
2024-05-09T07:43:04.991Z,2.60
2024-05-09T07:52:23.686Z,10.10
2024-05-09T07:53:39.114Z,3.80
2024-05-09T07:56:10.222Z,6.60
2024-05-09T07:58:39.120Z,9.80
2024-05-09T08:01:06.822Z,3.70
2024-05-09T08:03:34.712Z,6.60
2024-05-09T08:06:02.504Z,3.40
2024-05-09T08:08:30.278Z,3.00
2024-05-09T08:10:57.746Z,2.20
2024-05-09T08:13:25.221Z,4.20
2024-05-09T08:15:52.918Z,5.30
2024-05-09T08:18:20.758Z,1.60
2024-05-09T08:20:49.143Z,9.30
2024-05-09T08:23:17.565Z,3.80
2024-05-09T08:25:45.052Z,3.80
2024-05-09T08:28:12.902Z,3.90
2024-05-09T08:30:40.705Z,4.70
2024-05-09T08:33:08.511Z,8.80
2024-05-09T08:35:36.273Z,8.60
2024-05-09T08:38:04.218Z,2.70
2024-05-09T08:40:35.815Z,3.50
2024-05-09T08:43:10.431Z,9.50
2024-05-09T08:45:41.981Z,2.80
2024-05-09T08:48:11.791Z,5.20
2024-05-09T08:50:42.869Z,3.90
2024-05-09T08:53:10.715Z,2.60
2024-05-09T08:56:03.058Z,2.50
2024-05-09T08:58:31.607Z,3.70
2024-05-09T09:01:00.141Z,8.40
2024-05-09T09:03:30.089Z,6.10
2024-05-09T09:06:04.049Z,5.90
2024-05-09T09:08:31.672Z,8.20
2024-05-09T09:10:59.204Z,6.70
2024-05-09T09:13:29.324Z,5.30
2024-05-09T09:16:00.905Z,3.10
2024-05-09T09:18:30.028Z,3.70
2024-05-09T09:20:58.256Z,3.50
2024-05-09T09:23:29.391Z,4.70
2024-05-09T09:25:59.949Z,6.40
2024-05-09T09:28:27.604Z,3.60
2024-05-09T09:31:01.026Z,7.30
2024-05-09T09:33:31.231Z,2.60
2024-05-09T09:36:02.674Z,3.30
2024-05-09T09:38:30.891Z,4.10
2024-05-09T09:40:59.686Z,3.20
2024-05-09T09:43:27.676Z,2.00
2024-05-09T09:45:59.468Z,7.10
2024-05-09T09:48:27.306Z,3.80
2024-05-09T09:50:55.286Z,5.30
2024-05-09T09:53:23.617Z,6.20
2024-05-09T09:55:52.307Z,1.10
2024-05-09T09:58:20.121Z,4.10
2024-05-09T10:00:47.910Z,5.50
2024-05-09T10:03:15.608Z,8.60
2024-05-09T10:05:46.293Z,6.70
2024-05-09T10:08:15.849Z,11.00
2024-05-09T10:10:49.508Z,9.10
2024-05-09T10:13:22.225Z,4.60
2024-05-09T10:15:53.775Z,3.80
2024-05-09T10:18:28.096Z,5.70
2024-05-09T10:20:59.415Z,4.20
2024-05-09T10:23:29.878Z,5.20
2024-05-09T10:26:01.792Z,3.40
2024-05-09T10:28:30.212Z,3.70
2024-05-09T10:31:10.472Z,2.90
2024-05-09T10:33:52.128Z,9.40
2024-05-09T10:36:21.191Z,2.90
2024-05-09T10:38:49.444Z,3.70
2024-05-09T10:41:17.338Z,8.90
2024-05-09T10:43:44.979Z,3.80
2024-05-09T10:46:18.750Z,4.00
2024-05-09T10:48:47.275Z,8.60
2024-05-09T10:51:15.113Z,6.20
2024-05-09T10:53:46.377Z,5.40
2024-05-09T10:56:14.649Z,8.00
2024-05-09T10:58:42.383Z,6.10
2024-05-09T11:01:10.676Z,4.10
2024-05-09T11:03:41.170Z,4.80
2024-05-09T11:06:10.649Z,13.00
2024-05-09T11:08:38.743Z,6.60
2024-05-09T11:11:07.789Z,7.50
2024-05-09T11:13:37.015Z,8.80
2024-05-09T11:16:05.686Z,5.00
2024-05-09T11:18:37.072Z,5.60
2024-05-09T11:21:13.414Z,4.10
2024-05-09T11:23:41.777Z,2.90
2024-05-09T11:26:10.677Z,14.20
2024-05-09T11:28:38.434Z,4.70
2024-05-09T11:31:07.313Z,6.20
2024-05-09T11:33:38.938Z,7.20
2024-05-09T11:36:07.496Z,6.90
2024-05-09T11:38:35.440Z,4.80
2024-05-09T11:41:03.569Z,10.10
2024-05-09T11:43:31.408Z,6.70
2024-05-09T11:46:03.612Z,2.90
2024-05-09T11:48:32.277Z,5.10
2024-05-09T11:51:00.160Z,3.00
2024-05-09T11:53:28.045Z,5.00
2024-05-09T11:55:56.821Z,5.70
2024-05-09T11:58:24.435Z,11.80
2024-05-09T12:00:52.025Z,4.10
2024-05-09T12:03:20.548Z,3.90
2024-05-09T12:05:48.634Z,5.40
2024-05-09T12:08:18.188Z,4.80
2024-05-09T12:10:46.031Z,7.50
2024-05-09T12:13:14.039Z,4.60
2024-05-09T12:15:42.425Z,7.40
2024-05-09T12:18:10.044Z,11.30
2024-05-09T12:20:39.730Z,10.80
2024-05-09T12:23:09.414Z,23.10
2024-05-09T12:25:38.477Z,10.30
2024-05-09T12:28:06.678Z,10.10
2024-05-09T12:30:38.376Z,5.90
2024-05-09T12:33:09.624Z,6.80
2024-05-09T12:35:37.550Z,10.30
2024-05-09T12:38:05.184Z,11.80
2024-05-09T12:40:36.879Z,7.90
2024-05-09T12:43:07.453Z,3.90
2024-05-09T12:45:36.116Z,3.60
2024-05-09T12:48:06.405Z,6.90
2024-05-09T12:50:34.785Z,7.20
2024-05-09T12:53:03.751Z,4.10
2024-05-09T12:55:40.535Z,7.60
2024-05-09T12:58:16.981Z,3.10
2024-05-09T13:00:45.253Z,7.30
2024-05-09T13:03:13.149Z,8.90
2024-05-09T13:05:41.502Z,5.70
2024-05-09T13:08:09.541Z,9.50
2024-05-09T13:10:37.169Z,4.00
2024-05-09T13:13:04.911Z,7.60
2024-05-09T13:15:34.405Z,6.60
2024-05-09T13:18:03.662Z,6.10
2024-05-09T13:20:34.566Z,6.20
2024-05-09T13:23:04.881Z,9.40
2024-05-09T13:25:34.317Z,7.10
2024-05-09T13:28:02.426Z,12.80
2024-05-09T13:30:38.811Z,5.90
2024-05-09T13:33:11.449Z,3.70
2024-05-09T13:35:47.369Z,4.70
2024-05-09T13:38:18.948Z,5.70
2024-05-09T13:40:47.204Z,6.00
2024-05-09T13:43:15.167Z,6.70
2024-05-09T13:45:43.209Z,15.10
2024-05-09T13:48:10.957Z,14.20
2024-05-09T13:50:39.112Z,5.30
2024-05-09T13:53:07.823Z,6.80
2024-05-09T13:55:39.573Z,8.90
2024-05-09T13:58:07.783Z,5.40
2024-05-09T14:00:44.492Z,3.60
2024-05-09T14:03:18.410Z,4.40
2024-05-09T14:05:49.208Z,3.80
2024-05-09T14:08:19.221Z,5.30
2024-05-09T14:10:47.406Z,7.40
2024-05-09T14:13:15.317Z,5.00
2024-05-09T14:15:42.991Z,4.60
2024-05-09T14:18:13.380Z,6.40
2024-05-09T14:20:42.428Z,8.90
2024-05-09T14:23:10.479Z,3.70
2024-05-09T14:25:42.020Z,4.70
2024-05-09T14:28:11.928Z,5.60
2024-05-09T14:30:40.348Z,8.30
2024-05-09T14:33:09.066Z,2.90
2024-05-09T14:35:38.496Z,7.10
2024-05-09T14:38:07.350Z,11.30
2024-05-09T14:40:41.231Z,12.50
2024-05-09T14:43:12.752Z,11.50
2024-05-09T14:45:41.354Z,7.80
2024-05-09T14:48:09.676Z,6.50
2024-05-09T14:50:39.599Z,3.20
2024-05-09T14:53:09.389Z,6.60
2024-05-09T14:55:38.710Z,4.70
2024-05-09T14:58:07.327Z,14.00
2024-05-09T15:00:38.376Z,7.70
2024-05-09T15:03:07.831Z,5.20
2024-05-09T15:05:35.957Z,6.30
2024-05-09T15:08:07.708Z,4.90
2024-05-09T15:10:37.020Z,6.70
2024-05-09T15:13:07.250Z,12.40
2024-05-09T15:15:36.770Z,40.80
2024-05-09T15:18:05.530Z,7.70
2024-05-09T15:20:36.497Z,5.60
2024-05-09T15:23:05.530Z,8.80
2024-05-09T15:25:33.950Z,5.30
2024-05-09T15:28:01.740Z,4.80
2024-05-09T15:30:32.311Z,6.40
2024-05-09T15:33:05.039Z,5.30
2024-05-09T15:35:33.506Z,9.70
2024-05-09T15:38:02.516Z,7.50
2024-05-09T15:40:37.631Z,5.70
2024-05-09T15:43:09.318Z,8.70
2024-05-09T15:45:39.096Z,8.80
2024-05-09T15:48:07.910Z,3.80
2024-05-09T15:50:39.666Z,14.40
2024-05-09T15:53:10.855Z,10.60
2024-05-09T15:55:38.809Z,22.20
2024-05-09T15:58:07.342Z,8.60
2024-05-09T16:00:39.571Z,4.30
2024-05-09T16:03:10.636Z,10.50
2024-05-09T16:05:39.086Z,7.20
2024-05-09T16:08:07.242Z,4.30
2024-05-09T16:10:36.104Z,8.60
2024-05-09T16:13:04.228Z,8.10
2024-05-09T16:15:32.188Z,7.00
2024-05-09T16:18:00.254Z,8.10
2024-05-09T16:20:37.268Z,5.00
2024-05-09T16:23:08.752Z,4.50
2024-05-09T16:25:37.062Z,8.10
2024-05-09T16:28:10.174Z,13.50
2024-05-09T16:30:39.848Z,6.60
2024-05-09T16:33:08.701Z,5.90
2024-05-09T16:35:40.240Z,5.80
2024-05-09T16:38:08.061Z,7.10
2024-05-09T16:40:39.721Z,12.80
2024-05-09T16:43:10.084Z,3.80
2024-05-09T16:45:39.680Z,7.40
2024-05-09T16:48:07.842Z,4.50
2024-05-09T16:50:36.349Z,7.80
2024-05-09T16:53:05.844Z,9.70
2024-05-09T16:55:35.025Z,10.50
2024-05-09T16:58:05.545Z,8.60
2024-05-09T17:00:41.667Z,10.10
2024-05-09T17:03:14.291Z,5.60
2024-05-09T17:05:45.229Z,10.60
2024-05-09T17:08:12.877Z,8.60
2024-05-09T17:10:40.582Z,3.20
2024-05-09T17:13:09.733Z,7.50
2024-05-09T17:15:37.724Z,7.90
2024-05-09T17:18:06.498Z,6.30
2024-05-09T17:20:36.601Z,9.00
2024-05-09T17:23:12.090Z,11.60
2024-05-09T17:25:40.041Z,6.80
2024-05-09T17:28:08.545Z,9.10
2024-05-09T17:30:38.606Z,6.30
2024-05-09T17:33:09.128Z,9.00
2024-05-09T17:35:37.741Z,8.40
2024-05-09T17:38:05.933Z,11.80
2024-05-09T17:40:36.302Z,9.50
2024-05-09T17:43:07.238Z,10.20
2024-05-09T17:45:40.659Z,10.50
2024-05-09T17:48:10.781Z,9.10
2024-05-09T17:50:39.811Z,9.40
2024-05-09T17:53:07.888Z,12.50
2024-05-09T17:55:36.224Z,10.30
2024-05-09T17:58:04.901Z,9.80
2024-05-09T18:00:38.924Z,22.00
2024-05-09T18:03:11.352Z,22.60
2024-05-09T18:05:40.109Z,13.20
2024-05-09T18:08:08.146Z,18.50
2024-05-09T18:10:38.592Z,17.30
2024-05-09T18:13:08.347Z,24.90
2024-05-09T18:15:36.948Z,15.20
2024-05-09T18:18:05.200Z,17.80
2024-05-09T18:20:41.415Z,21.20
2024-05-09T18:23:14.087Z,25.90
2024-05-09T18:25:44.225Z,27.70
2024-05-09T18:28:11.782Z,23.20
2024-05-09T18:30:39.943Z,18.10
2024-05-09T18:33:09.396Z,17.50
2024-05-09T18:35:37.142Z,18.50
2024-05-09T18:38:04.981Z,22.70
2024-05-09T18:40:35.958Z,22.20
2024-05-09T18:43:07.166Z,33.20
2024-05-09T18:45:39.563Z,32.80
2024-05-09T18:48:08.512Z,22.70
2024-05-09T18:50:39.469Z,34.50
2024-05-09T18:53:09.668Z,34.40
2024-05-09T18:55:37.148Z,35.40
2024-05-09T18:58:04.941Z,32.40
2024-05-09T19:00:36.395Z,23.60
2024-05-09T19:03:08.055Z,27.30
2024-05-09T19:05:37.032Z,23.00
2024-05-09T19:08:05.071Z,27.40
2024-05-09T19:10:35.079Z,42.50
2024-05-09T19:13:08.176Z,34.80
2024-05-09T19:15:39.759Z,29.20
2024-05-09T19:18:07.935Z,23.60
2024-05-09T19:20:36.731Z,32.30
2024-05-09T19:23:05.870Z,24.60
2024-05-09T19:25:34.293Z,25.40
2024-05-09T19:28:01.815Z,23.20
2024-05-09T19:30:37.684Z,17.90
2024-05-09T19:33:09.436Z,28.50
2024-05-09T19:35:37.792Z,29.30
2024-05-09T19:38:05.604Z,44.90
2024-05-09T19:40:34.701Z,47.10
2024-05-09T19:43:04.346Z,59.00
2024-05-09T19:45:32.745Z,49.60
2024-05-09T19:48:00.869Z,24.90
2024-05-09T19:50:37.118Z,26.00
2024-05-09T19:53:10.223Z,14.00
2024-05-09T19:55:38.465Z,16.40
2024-05-09T19:58:07.428Z,19.70
2024-05-09T20:00:37.905Z,21.20
2024-05-09T20:03:08.227Z,22.40
2024-05-09T20:05:37.286Z,20.60
2024-05-09T20:08:05.572Z,26.50
2024-05-09T20:10:35.378Z,19.40
2024-05-09T20:13:05.783Z,20.60
2024-05-09T20:15:35.462Z,18.80
2024-05-09T20:18:03.817Z,25.50
2024-05-09T20:20:37.942Z,18.80
2024-05-09T20:23:09.999Z,22.60
2024-05-09T20:25:37.694Z,32.90
2024-05-09T20:28:08.323Z,57.20
2024-05-09T20:30:36.432Z,63.10
2024-05-09T20:33:06.896Z,72.90
2024-05-09T20:35:36.135Z,82.20
2024-05-09T20:38:04.616Z,75.20
2024-05-09T20:40:36.978Z,62.60
2024-05-09T20:43:08.259Z,59.60
2024-05-09T20:45:36.434Z,41.70
2024-05-09T20:48:04.367Z,46.00
2024-05-09T20:50:37.964Z,33.70
2024-05-09T20:53:09.307Z,34.70
2024-05-09T20:55:36.996Z,44.90
2024-05-09T20:58:04.880Z,46.00
2024-05-09T21:00:40.183Z,38.50
2024-05-09T21:03:12.342Z,47.30
2024-05-09T21:05:40.697Z,42.50
2024-05-09T21:08:08.825Z,44.40
2024-05-09T21:10:36.971Z,52.00
2024-05-09T21:13:05.867Z,38.50
2024-05-09T21:15:34.603Z,48.40
2024-05-09T21:18:02.586Z,43.70
2024-05-09T21:20:33.139Z,48.50
2024-05-09T21:23:01.427Z,53.50
2024-05-09T21:25:29.397Z,47.80
2024-05-09T21:27:57.233Z,60.20
2024-05-09T21:30:37.012Z,64.80
2024-05-09T21:33:10.372Z,88.10
2024-05-09T21:35:39.642Z,81.70
2024-05-09T21:38:07.383Z,72.30
2024-05-09T21:40:36.634Z,73.40
2024-05-09T21:43:06.337Z,72.00
2024-05-09T21:45:34.607Z,67.90
2024-05-09T21:48:06.262Z,72.40
2024-05-09T21:50:39.809Z,65.60
2024-05-09T21:53:10.723Z,61.60
2024-05-09T21:55:39.072Z,62.50
2024-05-09T21:58:06.940Z,51.60
2024-05-09T22:00:37.996Z,57.80
2024-05-09T22:03:07.997Z,46.50
2024-05-09T22:05:37.742Z,50.60
2024-05-09T22:08:05.994Z,40.70
2024-05-09T22:10:35.715Z,51.00
2024-05-09T22:13:07.774Z,47.50
2024-05-09T22:15:37.018Z,52.10
2024-05-09T22:18:07.226Z,43.60
2024-05-09T22:20:38.451Z,54.70
2024-05-09T22:23:07.779Z,58.20
2024-05-09T22:25:36.144Z,60.70
2024-05-09T22:28:04.369Z,54.20
2024-05-09T22:30:37.039Z,48.70
2024-05-09T22:33:08.491Z,53.70
2024-05-09T22:35:37.372Z,53.90
2024-05-09T22:38:08.435Z,50.00
2024-05-09T22:40:45.794Z,56.00
2024-05-09T22:43:19.007Z,68.80
2024-05-09T22:45:46.891Z,59.60
2024-05-09T22:48:14.926Z,71.20
2024-05-09T22:50:45.069Z,88.50
2024-05-09T22:53:14.784Z,93.90
2024-05-09T22:55:42.427Z,76.70
2024-05-09T22:58:10.113Z,75.30
2024-05-09T23:00:37.996Z,39.80
2024-05-09T23:03:05.947Z,42.20
2024-05-09T23:05:33.969Z,29.70
2024-05-09T23:08:02.279Z,36.20
2024-05-09T23:10:35.820Z,56.50
2024-05-09T23:13:06.738Z,43.50
2024-05-09T23:15:35.980Z,29.10
2024-05-09T23:18:03.929Z,19.70
2024-05-09T23:20:37.320Z,22.80
2024-05-09T23:23:07.787Z,16.80
2024-05-09T23:25:36.533Z,16.40
2024-05-09T23:28:04.231Z,12.90
2024-05-09T23:30:37.215Z,18.10
2024-05-09T23:33:09.430Z,25.40
2024-05-09T23:35:37.313Z,19.00
2024-05-09T23:38:04.833Z,15.20
2024-05-09T23:43:03.513Z,18.60
2024-05-09T23:45:31.155Z,18.20
2024-05-09T23:47:58.851Z,15.90
2024-05-09T23:50:33.437Z,15.70
2024-05-09T23:53:04.316Z,20.30
2024-05-09T23:55:32.420Z,16.10
2024-05-09T23:58:00.799Z,15.30
